sensor_id;sensor_type;location;lat;lon;timestamp;P1;durP1;ratioP1;P2;durP2;ratioP2
15496;SDS011;7850;52.204;5.942;2023-02-04T00:03:01;0.20;;;0.20;;
15496;SDS011;7850;52.204;5.942;2023-02-04T00:03:44;0.20;;;0.20;;
15496;SDS011;7850;52.204;5.942;2023-02-04T00:04:44;0.26;;;0.26;;
15496;SDS011;7850;52.204;5.942;2023-02-04T00:05:44;0.20;;;0.20;;
15496;SDS011;7850;52.204;5.942;2023-02-04T00:06:44;0.20;;;0.20;;
15496;SDS011;7850;52.204;5.942;2023-02-04T00:07:44;0.20;;;0.20;;
15496;SDS011;7850;52.204;5.942;2023-02-04T00:08:44;0.20;;;0.20;;
15496;SDS011;7850;52.204;5.942;2023-02-04T00:09:44;0.20;;;0.20;;
15496;SDS011;7850;52.204;5.942;2023-02-04T00:10:44;0.20;;;0.20;;
15496;SDS011;7850;52.204;5.942;2023-02-04T00:11:45;0.20;;;0.20;;
15496;SDS011;7850;52.204;5.942;2023-02-04T00:12:44;0.20;;;0.20;;
15496;SDS011;7850;52.204;5.942;2023-02-04T00:13:45;0.20;;;0.20;;
15496;SDS011;7850;52.204;5.942;2023-02-04T00:14:45;0.33;;;0.33;;
15496;SDS011;7850;52.204;5.942;2023-02-04T00:15:45;0.20;;;0.20;;
15496;SDS011;7850;52.204;5.942;2023-02-04T00:16:45;0.40;;;0.40;;
15496;SDS011;7850;52.204;5.942;2023-02-04T00:17:45;0.20;;;0.20;;
15496;SDS011;7850;52.204;5.942;2023-02-04T00:18:45;0.20;;;0.20;;
15496;SDS011;7850;52.204;5.942;2023-02-04T00:19:45;0.20;;;0.20;;
15496;SDS011;7850;52.204;5.942;2023-02-04T00:20:45;0.30;;;0.30;;
15496;SDS011;7850;52.204;5.942;2023-02-04T00:21:45;0.20;;;0.20;;
15496;SDS011;7850;52.204;5.942;2023-02-04T00:22:45;0.20;;;0.20;;
15496;SDS011;7850;52.204;5.942;2023-02-04T00:23:45;0.26;;;0.26;;
15496;SDS011;7850;52.204;5.942;2023-02-04T00:24:45;2.50;;;2.40;;
15496;SDS011;7850;52.204;5.942;2023-02-04T00:25:45;2.30;;;2.21;;
15496;SDS011;7850;52.204;5.942;2023-02-04T00:26:45;2.29;;;2.21;;
15496;SDS011;7850;52.204;5.942;2023-02-04T00:27:45;2.42;;;2.32;;
15496;SDS011;7850;52.204;5.942;2023-02-04T00:28:45;2.44;;;2.34;;
15496;SDS011;7850;52.204;5.942;2023-02-04T00:29:45;2.13;;;2.07;;
15496;SDS011;7850;52.204;5.942;2023-02-04T00:30:45;2.17;;;2.11;;
15496;SDS011;7850;52.204;5.942;2023-02-04T00:31:45;1.78;;;1.78;;
15496;SDS011;7850;52.204;5.942;2023-02-04T00:32:45;2.32;;;2.24;;
15496;SDS011;7850;52.204;5.942;2023-02-04T00:33:45;1.95;;;1.95;;
15496;SDS011;7850;52.204;5.942;2023-02-04T00:34:45;2.77;;;2.67;;
15496;SDS011;7850;52.204;5.942;2023-02-04T00:35:45;2.18;;;2.11;;
15496;SDS011;7850;52.204;5.942;2023-02-04T00:36:45;2.09;;;2.06;;
15496;SDS011;7850;52.204;5.942;2023-02-04T00:37:45;2.62;;;2.53;;
15496;SDS011;7850;52.204;5.942;2023-02-04T00:38:45;2.42;;;2.33;;
15496;SDS011;7850;52.204;5.942;2023-02-04T00:39:45;2.32;;;2.22;;
15496;SDS011;7850;52.204;5.942;2023-02-04T00:40:45;2.52;;;2.42;;
15496;SDS011;7850;52.204;5.942;2023-02-04T00:41:45;2.14;;;2.07;;
15496;SDS011;7850;52.204;5.942;2023-02-04T00:42:45;1.87;;;1.86;;
15496;SDS011;7850;52.204;5.942;2023-02-04T00:43:45;2.28;;;2.19;;
15496;SDS011;7850;52.204;5.942;2023-02-04T00:44:46;2.13;;;2.08;;
15496;SDS011;7850;52.204;5.942;2023-02-04T00:45:46;2.49;;;2.39;;
15496;SDS011;7850;52.204;5.942;2023-02-04T00:46:46;2.38;;;2.28;;
15496;SDS011;7850;52.204;5.942;2023-02-04T00:47:46;2.27;;;2.17;;
15496;SDS011;7850;52.204;5.942;2023-02-04T00:48:46;2.35;;;2.25;;
15496;SDS011;7850;52.204;5.942;2023-02-04T00:49:46;0.96;;;0.96;;
15496;SDS011;7850;52.204;5.942;2023-02-04T00:50:46;0.68;;;0.68;;
15496;SDS011;7850;52.204;5.942;2023-02-04T00:51:46;0.61;;;0.61;;
15496;SDS011;7850;52.204;5.942;2023-02-04T00:52:46;0.72;;;0.72;;
15496;SDS011;7850;52.204;5.942;2023-02-04T00:53:46;0.60;;;0.60;;
15496;SDS011;7850;52.204;5.942;2023-02-04T00:54:46;6.14;;;5.90;;
15496;SDS011;7850;52.204;5.942;2023-02-04T00:55:46;11.05;;;10.57;;
15496;SDS011;7850;52.204;5.942;2023-02-04T00:56:46;11.03;;;10.55;;
15496;SDS011;7850;52.204;5.942;2023-02-04T00:57:46;12.30;;;11.77;;
15496;SDS011;7850;52.204;5.942;2023-02-04T00:58:46;11.37;;;10.88;;
15496;SDS011;7850;52.204;5.942;2023-02-04T00:59:46;10.79;;;10.32;;
15496;SDS011;7850;52.204;5.942;2023-02-04T01:00:46;9.07;;;8.67;;
15496;SDS011;7850;52.204;5.942;2023-02-04T01:01:46;7.22;;;6.93;;
15496;SDS011;7850;52.204;5.942;2023-02-04T01:02:46;8.75;;;8.35;;
15496;SDS011;7850;52.204;5.942;2023-02-04T01:03:46;9.73;;;9.33;;
15496;SDS011;7850;52.204;5.942;2023-02-04T01:04:46;9.95;;;9.54;;
15496;SDS011;7850;52.204;5.942;2023-02-04T01:05:46;9.68;;;9.27;;
15496;SDS011;7850;52.204;5.942;2023-02-04T01:06:46;7.84;;;7.53;;
15496;SDS011;7850;52.204;5.942;2023-02-04T01:07:46;5.95;;;5.74;;
15496;SDS011;7850;52.204;5.942;2023-02-04T01:08:46;5.65;;;5.45;;
15496;SDS011;7850;52.204;5.942;2023-02-04T01:09:46;6.18;;;5.95;;
15496;SDS011;7850;52.204;5.942;2023-02-04T01:10:46;5.73;;;5.52;;
15496;SDS011;7850;52.204;5.942;2023-02-04T01:11:46;5.23;;;5.02;;
15496;SDS011;7850;52.204;5.942;2023-02-04T01:12:46;5.57;;;5.36;;
15496;SDS011;7850;52.204;5.942;2023-02-04T01:13:46;6.63;;;6.35;;
15496;SDS011;7850;52.204;5.942;2023-02-04T01:14:46;7.40;;;7.09;;
15496;SDS011;7850;52.204;5.942;2023-02-04T01:15:46;7.71;;;7.40;;
15496;SDS011;7850;52.204;5.942;2023-02-04T01:16:46;7.19;;;6.90;;
15496;SDS011;7850;52.204;5.942;2023-02-04T01:17:47;7.51;;;7.21;;
15496;SDS011;7850;52.204;5.942;2023-02-04T01:18:47;7.92;;;7.62;;
15496;SDS011;7850;52.204;5.942;2023-02-04T01:19:47;8.31;;;7.98;;
15496;SDS011;7850;52.204;5.942;2023-02-04T01:20:47;7.19;;;6.91;;
15496;SDS011;7850;52.204;5.942;2023-02-04T01:21:47;7.97;;;7.67;;
15496;SDS011;7850;52.204;5.942;2023-02-04T01:22:47;8.96;;;8.55;;
15496;SDS011;7850;52.204;5.942;2023-02-04T01:23:47;7.95;;;7.64;;
15496;SDS011;7850;52.204;5.942;2023-02-04T01:24:47;6.90;;;6.59;;
15496;SDS011;7850;52.204;5.942;2023-02-04T01:25:47;7.37;;;7.07;;
15496;SDS011;7850;52.204;5.942;2023-02-04T01:26:47;7.03;;;6.72;;
15496;SDS011;7850;52.204;5.942;2023-02-04T01:27:47;7.99;;;7.69;;
15496;SDS011;7850;52.204;5.942;2023-02-04T01:28:47;5.08;;;4.88;;
15496;SDS011;7850;52.204;5.942;2023-02-04T01:29:47;2.07;;;2.01;;
15496;SDS011;7850;52.204;5.942;2023-02-04T01:30:47;0.40;;;0.40;;
15496;SDS011;7850;52.204;5.942;2023-02-04T01:31:47;1.21;;;1.21;;
15496;SDS011;7850;52.204;5.942;2023-02-04T01:32:47;0.56;;;0.56;;
15496;SDS011;7850;52.204;5.942;2023-02-04T01:33:47;0.79;;;0.78;;
15496;SDS011;7850;52.204;5.942;2023-02-04T01:34:47;0.60;;;0.60;;
15496;SDS011;7850;52.204;5.942;2023-02-04T01:35:47;0.40;;;0.40;;
15496;SDS011;7850;52.204;5.942;2023-02-04T01:36:47;0.82;;;0.82;;
15496;SDS011;7850;52.204;5.942;2023-02-04T01:37:47;0.10;;;0.10;;
15496;SDS011;7850;52.204;5.942;2023-02-04T01:38:47;0.10;;;0.10;;
15496;SDS011;7850;52.204;5.942;2023-02-04T01:39:47;0.10;;;0.10;;
15496;SDS011;7850;52.204;5.942;2023-02-04T01:40:47;0.20;;;0.20;;
15496;SDS011;7850;52.204;5.942;2023-02-04T01:41:47;0.12;;;0.11;;
15496;SDS011;7850;52.204;5.942;2023-02-04T01:42:47;0.11;;;0.11;;
15496;SDS011;7850;52.204;5.942;2023-02-04T01:43:47;0.10;;;0.10;;
15496;SDS011;7850;52.204;5.942;2023-02-04T01:44:47;0.10;;;0.10;;
15496;SDS011;7850;52.204;5.942;2023-02-04T01:45:48;0.15;;;0.15;;
15496;SDS011;7850;52.204;5.942;2023-02-04T01:46:47;0.20;;;0.20;;
15496;SDS011;7850;52.204;5.942;2023-02-04T01:47:47;0.10;;;0.10;;
15496;SDS011;7850;52.204;5.942;2023-02-04T01:48:47;0.20;;;0.19;;
15496;SDS011;7850;52.204;5.942;2023-02-04T01:49:48;0.10;;;0.10;;
15496;SDS011;7850;52.204;5.942;2023-02-04T01:50:48;0.11;;;0.10;;
15496;SDS011;7850;52.204;5.942;2023-02-04T01:51:48;0.10;;;0.10;;
15496;SDS011;7850;52.204;5.942;2023-02-04T01:52:48;0.10;;;0.10;;
15496;SDS011;7850;52.204;5.942;2023-02-04T01:53:48;0.10;;;0.10;;
15496;SDS011;7850;52.204;5.942;2023-02-04T01:54:48;0.10;;;0.10;;
15496;SDS011;7850;52.204;5.942;2023-02-04T01:55:48;0.10;;;0.10;;
15496;SDS011;7850;52.204;5.942;2023-02-04T01:56:48;0.10;;;0.10;;
15496;SDS011;7850;52.204;5.942;2023-02-04T01:57:48;0.10;;;0.10;;
15496;SDS011;7850;52.204;5.942;2023-02-04T01:58:48;0.10;;;0.10;;
15496;SDS011;7850;52.204;5.942;2023-02-04T01:59:48;0.19;;;0.19;;
15496;SDS011;7850;52.204;5.942;2023-02-04T02:00:48;0.10;;;0.10;;
15496;SDS011;7850;52.204;5.942;2023-02-04T02:01:49;0.20;;;0.20;;
15496;SDS011;7850;52.204;5.942;2023-02-04T02:02:49;0.17;;;0.16;;
15496;SDS011;7850;52.204;5.942;2023-02-04T02:03:48;0.14;;;0.14;;
15496;SDS011;7850;52.204;5.942;2023-02-04T02:04:48;0.14;;;0.14;;
15496;SDS011;7850;52.204;5.942;2023-02-04T02:05:49;0.18;;;0.17;;
15496;SDS011;7850;52.204;5.942;2023-02-04T02:06:49;0.19;;;0.18;;
15496;SDS011;7850;52.204;5.942;2023-02-04T02:07:48;0.10;;;0.10;;
15496;SDS011;7850;52.204;5.942;2023-02-04T02:08:48;0.13;;;0.12;;
15496;SDS011;7850;52.204;5.942;2023-02-04T02:09:48;0.15;;;0.15;;
15496;SDS011;7850;52.204;5.942;2023-02-04T02:10:48;0.20;;;0.20;;
15496;SDS011;7850;52.204;5.942;2023-02-04T02:11:49;0.10;;;0.10;;
15496;SDS011;7850;52.204;5.942;2023-02-04T02:12:49;0.18;;;0.17;;
15496;SDS011;7850;52.204;5.942;2023-02-04T02:13:49;0.10;;;0.10;;
15496;SDS011;7850;52.204;5.942;2023-02-04T02:14:49;0.10;;;0.10;;
15496;SDS011;7850;52.204;5.942;2023-02-04T02:15:49;0.10;;;0.10;;
15496;SDS011;7850;52.204;5.942;2023-02-04T02:16:49;0.20;;;0.20;;
15496;SDS011;7850;52.204;5.942;2023-02-04T02:17:49;0.15;;;0.15;;
15496;SDS011;7850;52.204;5.942;2023-02-04T02:18:49;0.17;;;0.16;;
15496;SDS011;7850;52.204;5.942;2023-02-04T02:19:49;0.10;;;0.10;;
15496;SDS011;7850;52.204;5.942;2023-02-04T02:20:49;0.18;;;0.17;;
15496;SDS011;7850;52.204;5.942;2023-02-04T02:21:52;0.18;;;0.18;;
15496;SDS011;7850;52.204;5.942;2023-02-04T02:22:51;0.16;;;0.16;;
15496;SDS011;7850;52.204;5.942;2023-02-04T02:23:50;0.10;;;0.10;;
15496;SDS011;7850;52.204;5.942;2023-02-04T02:24:49;0.10;;;0.10;;
15496;SDS011;7850;52.204;5.942;2023-02-04T02:25:49;0.20;;;0.20;;
15496;SDS011;7850;52.204;5.942;2023-02-04T02:26:49;0.10;;;0.10;;
15496;SDS011;7850;52.204;5.942;2023-02-04T02:27:49;0.10;;;0.10;;
15496;SDS011;7850;52.204;5.942;2023-02-04T02:28:49;0.10;;;0.10;;
15496;SDS011;7850;52.204;5.942;2023-02-04T02:29:49;0.14;;;0.14;;
15496;SDS011;7850;52.204;5.942;2023-02-04T02:30:49;0.10;;;0.10;;
15496;SDS011;7850;52.204;5.942;2023-02-04T02:31:49;0.10;;;0.10;;
15496;SDS011;7850;52.204;5.942;2023-02-04T02:32:49;0.10;;;0.10;;
15496;SDS011;7850;52.204;5.942;2023-02-04T02:33:49;0.13;;;0.13;;
15496;SDS011;7850;52.204;5.942;2023-02-04T02:34:49;0.20;;;0.19;;
15496;SDS011;7850;52.204;5.942;2023-02-04T02:35:50;0.14;;;0.14;;
15496;SDS011;7850;52.204;5.942;2023-02-04T02:36:50;0.10;;;0.10;;
15496;SDS011;7850;52.204;5.942;2023-02-04T02:37:50;0.10;;;0.10;;
15496;SDS011;7850;52.204;5.942;2023-02-04T02:38:50;0.20;;;0.20;;
15496;SDS011;7850;52.204;5.942;2023-02-04T02:39:50;0.10;;;0.10;;
15496;SDS011;7850;52.204;5.942;2023-02-04T02:40:50;0.17;;;0.16;;
15496;SDS011;7850;52.204;5.942;2023-02-04T02:41:50;0.20;;;0.20;;
15496;SDS011;7850;52.204;5.942;2023-02-04T02:42:50;0.17;;;0.16;;
15496;SDS011;7850;52.204;5.942;2023-02-04T02:43:50;0.20;;;0.20;;
15496;SDS011;7850;52.204;5.942;2023-02-04T02:44:50;0.20;;;0.20;;
15496;SDS011;7850;52.204;5.942;2023-02-04T02:45:50;0.10;;;0.10;;
15496;SDS011;7850;52.204;5.942;2023-02-04T02:46:50;0.15;;;0.14;;
15496;SDS011;7850;52.204;5.942;2023-02-04T02:47:50;0.10;;;0.10;;
15496;SDS011;7850;52.204;5.942;2023-02-04T02:48:50;0.10;;;0.10;;
15496;SDS011;7850;52.204;5.942;2023-02-04T02:49:51;0.10;;;0.10;;
15496;SDS011;7850;52.204;5.942;2023-02-04T02:50:50;0.19;;;0.19;;
15496;SDS011;7850;52.204;5.942;2023-02-04T02:51:50;0.20;;;0.20;;
15496;SDS011;7850;52.204;5.942;2023-02-04T02:52:50;0.20;;;0.20;;
15496;SDS011;7850;52.204;5.942;2023-02-04T02:53:50;0.12;;;0.12;;
15496;SDS011;7850;52.204;5.942;2023-02-04T02:54:50;0.20;;;0.19;;
15496;SDS011;7850;52.204;5.942;2023-02-04T02:55:50;0.20;;;0.20;;
15496;SDS011;7850;52.204;5.942;2023-02-04T02:56:50;0.10;;;0.10;;
15496;SDS011;7850;52.204;5.942;2023-02-04T02:57:51;0.10;;;0.10;;
15496;SDS011;7850;52.204;5.942;2023-02-04T02:58:50;0.20;;;0.20;;
15496;SDS011;7850;52.204;5.942;2023-02-04T02:59:50;0.12;;;0.11;;
15496;SDS011;7850;52.204;5.942;2023-02-04T03:00:50;0.20;;;0.20;;
15496;SDS011;7850;52.204;5.942;2023-02-04T03:01:51;0.20;;;0.20;;
15496;SDS011;7850;52.204;5.942;2023-02-04T03:02:52;0.20;;;0.20;;
15496;SDS011;7850;52.204;5.942;2023-02-04T03:03:50;0.20;;;0.20;;
15496;SDS011;7850;52.204;5.942;2023-02-04T03:04:52;0.20;;;0.20;;
15496;SDS011;7850;52.204;5.942;2023-02-04T03:05:52;0.17;;;0.17;;
15496;SDS011;7850;52.204;5.942;2023-02-04T03:06:51;0.20;;;0.20;;
15496;SDS011;7850;52.204;5.942;2023-02-04T03:07:51;0.20;;;0.20;;
15496;SDS011;7850;52.204;5.942;2023-02-04T03:08:51;0.20;;;0.20;;
15496;SDS011;7850;52.204;5.942;2023-02-04T03:09:51;0.20;;;0.20;;
15496;SDS011;7850;52.204;5.942;2023-02-04T03:10:51;0.17;;;0.16;;
15496;SDS011;7850;52.204;5.942;2023-02-04T03:11:51;0.11;;;0.10;;
15496;SDS011;7850;52.204;5.942;2023-02-04T03:12:51;0.20;;;0.19;;
15496;SDS011;7850;52.204;5.942;2023-02-04T03:13:51;0.20;;;0.20;;
15496;SDS011;7850;52.204;5.942;2023-02-04T03:14:51;0.20;;;0.20;;
15496;SDS011;7850;52.204;5.942;2023-02-04T03:15:51;0.13;;;0.12;;
15496;SDS011;7850;52.204;5.942;2023-02-04T03:16:51;0.11;;;0.10;;
15496;SDS011;7850;52.204;5.942;2023-02-04T03:17:51;0.17;;;0.17;;
15496;SDS011;7850;52.204;5.942;2023-02-04T03:18:51;0.16;;;0.16;;
15496;SDS011;7850;52.204;5.942;2023-02-04T03:19:51;0.18;;;0.18;;
15496;SDS011;7850;52.204;5.942;2023-02-04T03:20:51;0.20;;;0.20;;
15496;SDS011;7850;52.204;5.942;2023-02-04T03:21:51;0.17;;;0.17;;
15496;SDS011;7850;52.204;5.942;2023-02-04T03:22:52;0.11;;;0.11;;
15496;SDS011;7850;52.204;5.942;2023-02-04T03:23:51;0.11;;;0.10;;
15496;SDS011;7850;52.204;5.942;2023-02-04T03:24:52;0.10;;;0.10;;
15496;SDS011;7850;52.204;5.942;2023-02-04T03:25:52;0.10;;;0.10;;
15496;SDS011;7850;52.204;5.942;2023-02-04T03:26:52;0.15;;;0.14;;
15496;SDS011;7850;52.204;5.942;2023-02-04T03:27:52;0.20;;;0.20;;
15496;SDS011;7850;52.204;5.942;2023-02-04T03:28:52;0.15;;;0.15;;
15496;SDS011;7850;52.204;5.942;2023-02-04T03:29:52;0.16;;;0.15;;
15496;SDS011;7850;52.204;5.942;2023-02-04T03:30:52;0.18;;;0.18;;
15496;SDS011;7850;52.204;5.942;2023-02-04T03:31:52;0.18;;;0.18;;
15496;SDS011;7850;52.204;5.942;2023-02-04T03:32:52;0.12;;;0.11;;
15496;SDS011;7850;52.204;5.942;2023-02-04T03:33:52;0.16;;;0.16;;
15496;SDS011;7850;52.204;5.942;2023-02-04T03:34:52;0.20;;;0.19;;
15496;SDS011;7850;52.204;5.942;2023-02-04T03:35:52;0.17;;;0.17;;
15496;SDS011;7850;52.204;5.942;2023-02-04T03:36:52;0.20;;;0.20;;
15496;SDS011;7850;52.204;5.942;2023-02-04T03:37:52;0.18;;;0.18;;
15496;SDS011;7850;52.204;5.942;2023-02-04T03:38:52;0.10;;;0.10;;
15496;SDS011;7850;52.204;5.942;2023-02-04T03:39:52;0.16;;;0.16;;
15496;SDS011;7850;52.204;5.942;2023-02-04T03:40:52;0.10;;;0.10;;
15496;SDS011;7850;52.204;5.942;2023-02-04T03:41:52;0.59;;;0.59;;
15496;SDS011;7850;52.204;5.942;2023-02-04T03:42:53;0.87;;;0.87;;
15496;SDS011;7850;52.204;5.942;2023-02-04T03:43:53;0.99;;;0.98;;
15496;SDS011;7850;52.204;5.942;2023-02-04T03:44:53;0.79;;;0.78;;
15496;SDS011;7850;52.204;5.942;2023-02-04T03:45:53;0.98;;;0.98;;
15496;SDS011;7850;52.204;5.942;2023-02-04T03:46:53;1.88;;;1.85;;
15496;SDS011;7850;52.204;5.942;2023-02-04T03:47:53;3.36;;;3.26;;
15496;SDS011;7850;52.204;5.942;2023-02-04T03:48:53;3.50;;;3.40;;
15496;SDS011;7850;52.204;5.942;2023-02-04T03:49:53;3.30;;;3.19;;
15496;SDS011;7850;52.204;5.942;2023-02-04T03:50:53;3.47;;;3.37;;
15496;SDS011;7850;52.204;5.942;2023-02-04T03:51:53;0.87;;;0.86;;
15496;SDS011;7850;52.204;5.942;2023-02-04T03:52:53;3.77;;;3.67;;
15496;SDS011;7850;52.204;5.942;2023-02-04T03:53:53;3.10;;;3.00;;
15496;SDS011;7850;52.204;5.942;2023-02-04T03:54:53;3.29;;;3.19;;
15496;SDS011;7850;52.204;5.942;2023-02-04T03:55:53;3.01;;;2.91;;
15496;SDS011;7850;52.204;5.942;2023-02-04T03:56:53;2.06;;;2.01;;
15496;SDS011;7850;52.204;5.942;2023-02-04T03:57:53;2.64;;;2.56;;
15496;SDS011;7850;52.204;5.942;2023-02-04T03:58:53;2.42;;;2.32;;
15496;SDS011;7850;52.204;5.942;2023-02-04T03:59:53;2.87;;;2.77;;
15496;SDS011;7850;52.204;5.942;2023-02-04T04:00:53;2.91;;;2.81;;
15496;SDS011;7850;52.204;5.942;2023-02-04T04:01:53;2.76;;;2.66;;
15496;SDS011;7850;52.204;5.942;2023-02-04T04:02:53;1.78;;;1.78;;
15496;SDS011;7850;52.204;5.942;2023-02-04T04:03:53;2.28;;;2.22;;
15496;SDS011;7850;52.204;5.942;2023-02-04T04:04:53;3.05;;;2.95;;
15496;SDS011;7850;52.204;5.942;2023-02-04T04:05:53;2.03;;;2.00;;
15496;SDS011;7850;52.204;5.942;2023-02-04T04:06:54;1.00;;;1.00;;
15496;SDS011;7850;52.204;5.942;2023-02-04T04:07:54;1.76;;;1.73;;
15496;SDS011;7850;52.204;5.942;2023-02-04T04:08:54;3.11;;;3.02;;
15496;SDS011;7850;52.204;5.942;2023-02-04T04:09:54;2.88;;;2.77;;
15496;SDS011;7850;52.204;5.942;2023-02-04T04:10:54;1.72;;;1.71;;
15496;SDS011;7850;52.204;5.942;2023-02-04T04:11:54;0.52;;;0.51;;
15496;SDS011;7850;52.204;5.942;2023-02-04T04:12:54;2.42;;;2.34;;
15496;SDS011;7850;52.204;5.942;2023-02-04T04:13:54;1.39;;;1.39;;
15496;SDS011;7850;52.204;5.942;2023-02-04T04:14:54;2.76;;;2.67;;
15496;SDS011;7850;52.204;5.942;2023-02-04T04:15:58;5.25;;;5.04;;
15496;SDS011;7850;52.204;5.942;2023-02-04T04:16:54;3.19;;;3.08;;
15496;SDS011;7850;52.204;5.942;2023-02-04T04:17:54;4.98;;;4.80;;
15496;SDS011;7850;52.204;5.942;2023-02-04T04:18:54;6.89;;;6.61;;
15496;SDS011;7850;52.204;5.942;2023-02-04T04:19:54;1.05;;;1.05;;
15496;SDS011;7850;52.204;5.942;2023-02-04T04:20:54;4.11;;;3.97;;
15496;SDS011;7850;52.204;5.942;2023-02-04T04:21:58;9.33;;;8.93;;
15496;SDS011;7850;52.204;5.942;2023-02-04T04:22:54;4.06;;;3.93;;
15496;SDS011;7850;52.204;5.942;2023-02-04T04:23:54;9.47;;;9.08;;
15496;SDS011;7850;52.204;5.942;2023-02-04T04:24:54;3.86;;;3.76;;
15496;SDS011;7850;52.204;5.942;2023-02-04T04:25:54;5.23;;;5.03;;
15496;SDS011;7850;52.204;5.942;2023-02-04T04:26:54;3.98;;;3.85;;
15496;SDS011;7850;52.204;5.942;2023-02-04T04:27:55;2.42;;;2.34;;
15496;SDS011;7850;52.204;5.942;2023-02-04T04:28:55;2.98;;;2.88;;
15496;SDS011;7850;52.204;5.942;2023-02-04T04:29:55;1.49;;;1.49;;
15496;SDS011;7850;52.204;5.942;2023-02-04T04:30:55;1.85;;;1.81;;
15496;SDS011;7850;52.204;5.942;2023-02-04T04:31:55;4.54;;;4.35;;
15496;SDS011;7850;52.204;5.942;2023-02-04T04:32:55;3.22;;;3.12;;
15496;SDS011;7850;52.204;5.942;2023-02-04T04:33:55;0.80;;;0.80;;
15496;SDS011;7850;52.204;5.942;2023-02-04T04:34:55;0.96;;;0.97;;
15496;SDS011;7850;52.204;5.942;2023-02-04T04:35:55;0.31;;;0.32;;
15496;SDS011;7850;52.204;5.942;2023-02-04T04:36:55;1.03;;;1.03;;
15496;SDS011;7850;52.204;5.942;2023-02-04T04:37:55;2.03;;;1.99;;
15496;SDS011;7850;52.204;5.942;2023-02-04T04:38:55;5.21;;;5.02;;
15496;SDS011;7850;52.204;5.942;2023-02-04T04:39:55;0.20;;;0.20;;
15496;SDS011;7850;52.204;5.942;2023-02-04T04:40:55;0.38;;;0.38;;
15496;SDS011;7850;52.204;5.942;2023-02-04T04:41:55;0.11;;;0.11;;
15496;SDS011;7850;52.204;5.942;2023-02-04T04:42:55;0.16;;;0.16;;
15496;SDS011;7850;52.204;5.942;2023-02-04T04:43:55;0.10;;;0.10;;
15496;SDS011;7850;52.204;5.942;2023-02-04T04:44:55;0.10;;;0.10;;
15496;SDS011;7850;52.204;5.942;2023-02-04T04:45:55;0.10;;;0.10;;
15496;SDS011;7850;52.204;5.942;2023-02-04T04:46:55;0.20;;;0.20;;
15496;SDS011;7850;52.204;5.942;2023-02-04T04:47:55;0.18;;;0.18;;
15496;SDS011;7850;52.204;5.942;2023-02-04T04:48:55;0.10;;;0.10;;
15496;SDS011;7850;52.204;5.942;2023-02-04T04:49:55;0.10;;;0.10;;
15496;SDS011;7850;52.204;5.942;2023-02-04T04:50:55;0.20;;;0.20;;
15496;SDS011;7850;52.204;5.942;2023-02-04T04:51:55;0.12;;;0.12;;
15496;SDS011;7850;52.204;5.942;2023-02-04T04:52:55;0.10;;;0.10;;
15496;SDS011;7850;52.204;5.942;2023-02-04T04:53:55;0.10;;;0.10;;
15496;SDS011;7850;52.204;5.942;2023-02-04T04:54:55;0.10;;;0.10;;
15496;SDS011;7850;52.204;5.942;2023-02-04T04:55:56;0.17;;;0.17;;
15496;SDS011;7850;52.204;5.942;2023-02-04T04:56:56;0.20;;;0.20;;
15496;SDS011;7850;52.204;5.942;2023-02-04T04:57:56;0.10;;;0.10;;
15496;SDS011;7850;52.204;5.942;2023-02-04T04:58:56;0.18;;;0.18;;
15496;SDS011;7850;52.204;5.942;2023-02-04T04:59:56;0.12;;;0.12;;
15496;SDS011;7850;52.204;5.942;2023-02-04T05:00:56;0.10;;;0.10;;
15496;SDS011;7850;52.204;5.942;2023-02-04T05:01:56;0.10;;;0.10;;
15496;SDS011;7850;52.204;5.942;2023-02-04T05:02:56;0.11;;;0.11;;
15496;SDS011;7850;52.204;5.942;2023-02-04T05:03:56;0.10;;;0.10;;
15496;SDS011;7850;52.204;5.942;2023-02-04T05:04:56;0.10;;;0.10;;
15496;SDS011;7850;52.204;5.942;2023-02-04T05:05:56;0.10;;;0.10;;
15496;SDS011;7850;52.204;5.942;2023-02-04T05:06:56;0.14;;;0.14;;
15496;SDS011;7850;52.204;5.942;2023-02-04T05:07:56;0.10;;;0.10;;
15496;SDS011;7850;52.204;5.942;2023-02-04T05:08:56;0.18;;;0.18;;
15496;SDS011;7850;52.204;5.942;2023-02-04T05:09:56;0.13;;;0.13;;
15496;SDS011;7850;52.204;5.942;2023-02-04T05:10:56;0.14;;;0.14;;
15496;SDS011;7850;52.204;5.942;2023-02-04T05:11:56;0.15;;;0.15;;
15496;SDS011;7850;52.204;5.942;2023-02-04T05:12:56;0.10;;;0.10;;
15496;SDS011;7850;52.204;5.942;2023-02-04T05:13:56;0.10;;;0.10;;
15496;SDS011;7850;52.204;5.942;2023-02-04T05:14:56;0.10;;;0.10;;
15496;SDS011;7850;52.204;5.942;2023-02-04T05:15:56;0.10;;;0.10;;
15496;SDS011;7850;52.204;5.942;2023-02-04T05:16:56;0.10;;;0.10;;
15496;SDS011;7850;52.204;5.942;2023-02-04T05:17:56;0.10;;;0.10;;
15496;SDS011;7850;52.204;5.942;2023-02-04T05:18:57;0.10;;;0.10;;
15496;SDS011;7850;52.204;5.942;2023-02-04T05:19:57;0.10;;;0.10;;
15496;SDS011;7850;52.204;5.942;2023-02-04T05:20:57;0.10;;;0.10;;
15496;SDS011;7850;52.204;5.942;2023-02-04T05:21:57;0.10;;;0.10;;
15496;SDS011;7850;52.204;5.942;2023-02-04T05:22:57;0.10;;;0.10;;
15496;SDS011;7850;52.204;5.942;2023-02-04T05:23:57;0.10;;;0.10;;
15496;SDS011;7850;52.204;5.942;2023-02-04T05:24:57;0.10;;;0.10;;
15496;SDS011;7850;52.204;5.942;2023-02-04T05:25:57;0.10;;;0.10;;
15496;SDS011;7850;52.204;5.942;2023-02-04T05:26:57;0.16;;;0.16;;
15496;SDS011;7850;52.204;5.942;2023-02-04T05:27:57;0.10;;;0.10;;
15496;SDS011;7850;52.204;5.942;2023-02-04T05:28:57;0.10;;;0.10;;
15496;SDS011;7850;52.204;5.942;2023-02-04T05:29:57;0.10;;;0.10;;
15496;SDS011;7850;52.204;5.942;2023-02-04T05:30:57;0.10;;;0.10;;
15496;SDS011;7850;52.204;5.942;2023-02-04T05:31:57;0.10;;;0.10;;
15496;SDS011;7850;52.204;5.942;2023-02-04T05:32:57;0.10;;;0.10;;
15496;SDS011;7850;52.204;5.942;2023-02-04T05:33:57;0.10;;;0.10;;
15496;SDS011;7850;52.204;5.942;2023-02-04T05:34:57;0.12;;;0.12;;
15496;SDS011;7850;52.204;5.942;2023-02-04T05:35:57;0.12;;;0.12;;
15496;SDS011;7850;52.204;5.942;2023-02-04T05:36:57;0.10;;;0.10;;
15496;SDS011;7850;52.204;5.942;2023-02-04T05:37:57;0.10;;;0.10;;
15496;SDS011;7850;52.204;5.942;2023-02-04T05:38:57;0.10;;;0.10;;
15496;SDS011;7850;52.204;5.942;2023-02-04T05:39:57;0.10;;;0.10;;
15496;SDS011;7850;52.204;5.942;2023-02-04T05:40:57;0.10;;;0.10;;
15496;SDS011;7850;52.204;5.942;2023-02-04T05:41:57;0.10;;;0.10;;
15496;SDS011;7850;52.204;5.942;2023-02-04T05:42:57;0.10;;;0.10;;
15496;SDS011;7850;52.204;5.942;2023-02-04T05:43:57;0.10;;;0.10;;
15496;SDS011;7850;52.204;5.942;2023-02-04T05:44:57;0.11;;;0.11;;
15496;SDS011;7850;52.204;5.942;2023-02-04T05:45:57;0.10;;;0.10;;
15496;SDS011;7850;52.204;5.942;2023-02-04T05:46:57;0.19;;;0.19;;
15496;SDS011;7850;52.204;5.942;2023-02-04T05:47:57;0.15;;;0.15;;
15496;SDS011;7850;52.204;5.942;2023-02-04T05:48:57;0.10;;;0.10;;
15496;SDS011;7850;52.204;5.942;2023-02-04T05:49:57;0.10;;;0.10;;
15496;SDS011;7850;52.204;5.942;2023-02-04T05:50:57;0.10;;;0.10;;
15496;SDS011;7850;52.204;5.942;2023-02-04T05:51:58;0.10;;;0.10;;
15496;SDS011;7850;52.204;5.942;2023-02-04T05:52:58;0.10;;;0.10;;
15496;SDS011;7850;52.204;5.942;2023-02-04T05:53:58;0.10;;;0.10;;
15496;SDS011;7850;52.204;5.942;2023-02-04T05:54:58;0.10;;;0.10;;
15496;SDS011;7850;52.204;5.942;2023-02-04T05:55:58;0.10;;;0.10;;
15496;SDS011;7850;52.204;5.942;2023-02-04T05:56:58;0.10;;;0.10;;
15496;SDS011;7850;52.204;5.942;2023-02-04T05:57:58;0.10;;;0.10;;
15496;SDS011;7850;52.204;5.942;2023-02-04T05:58:58;0.10;;;0.10;;
15496;SDS011;7850;52.204;5.942;2023-02-04T05:59:58;0.15;;;0.15;;
15496;SDS011;7850;52.204;5.942;2023-02-04T06:00:58;0.10;;;0.10;;
15496;SDS011;7850;52.204;5.942;2023-02-04T06:01:58;0.10;;;0.10;;
15496;SDS011;7850;52.204;5.942;2023-02-04T06:02:58;0.10;;;0.10;;
15496;SDS011;7850;52.204;5.942;2023-02-04T06:03:58;0.10;;;0.10;;
15496;SDS011;7850;52.204;5.942;2023-02-04T06:04:58;0.25;;;0.25;;
15496;SDS011;7850;52.204;5.942;2023-02-04T06:05:58;0.12;;;0.12;;
15496;SDS011;7850;52.204;5.942;2023-02-04T06:06:58;0.10;;;0.10;;
15496;SDS011;7850;52.204;5.942;2023-02-04T06:07:58;0.10;;;0.10;;
15496;SDS011;7850;52.204;5.942;2023-02-04T06:08:58;0.16;;;0.16;;